Time;durP1;ratioP1;P1;durP2;ratioP2;P2;SDS_P1;SDS_P2;PMS_P1;PMS_P2;Temp;Humidity;BMP_temperature;BMP_pressure;BME280_temperature;BME280_humidity;BME280_pressure;Samples;Min_cycle;Max_cycle;Signal;HPM_P1;HPM_P2
2022/11/12 00:00:52;;;;;;;6.18;2.92;;;7.20;99.90;;;5.78;100.00;102354.94;5045871;28;20488;-77
2022/11/12 00:03:37;;;;;;;5.25;3.13;;;7.20;99.90;;;5.72;100.00;102348.25;5043020;28;20036;-78
2022/11/12 00:06:21;;;;;;;8.05;2.97;;;7.10;99.90;;;5.73;100.00;102349.97;5043531;28;20048;-78
2022/11/12 00:09:06;;;;;;;5.95;2.65;;;7.10;99.90;;;5.74;100.00;102350.81;5045830;28;20401;-79
2022/11/12 00:11:51;;;;;;;5.70;2.90;;;7.10;99.90;;;5.88;100.00;102350.38;5039878;28;20106;-78
2022/11/12 00:14:35;;;;;;;5.18;3.10;;;7.20;99.90;;;5.87;100.00;102351.38;5040352;28;20114;-79
2022/11/12 00:17:20;;;;;;;6.38;3.22;;;7.20;99.90;;;5.95;100.00;102347.09;5042595;28;20056;-77
2022/11/12 00:20:05;;;;;;;6.65;2.95;;;7.20;99.90;;;5.99;100.00;102351.22;5044351;28;20047;-78
2022/11/12 00:22:50;;;;;;;5.93;2.65;;;7.30;99.90;;;6.02;100.00;102356.38;5044941;28;20048;-78
2022/11/12 00:25:34;;;;;;;6.63;2.72;;;7.30;99.90;;;5.93;100.00;102354.50;5044609;28;20040;-78
2022/11/12 00:28:19;;;;;;;7.13;2.70;;;7.30;99.90;;;5.86;100.00;102352.38;5040300;28;20096;-77
2022/11/12 00:31:10;;;;;;;5.13;2.60;;;7.20;99.90;;;5.87;100.00;102351.38;5039750;28;20174;-77
2022/11/12 00:33:55;;;;;;;6.20;2.63;;;7.20;99.90;;;5.74;100.00;102346.25;5044747;28;20515;-77
2022/11/12 00:36:39;;;;;;;6.28;2.55;;;7.20;99.90;;;5.77;100.00;102358.66;5045522;28;20187;-77
2022/11/12 00:39:24;;;;;;;7.63;2.85;;;7.20;99.90;;;5.70;100.00;102357.50;5047964;28;20039;-78
2022/11/12 00:42:08;;;;;;;5.10;2.65;;;7.10;99.90;;;5.59;100.00;102355.81;5047840;28;20107;-77
2022/11/12 00:44:53;;;;;;;4.32;2.42;;;7.00;99.90;;;5.40;100.00;102348.53;5047586;28;20064;-77
2022/11/12 00:47:37;;;;;;;5.18;2.55;;;6.90;99.90;;;5.40;100.00;102346.66;5048259;28;20101;-77
2022/11/12 00:50:23;;;;;;;8.15;2.70;;;6.80;99.90;;;5.53;100.00;102362.63;5048807;28;20044;-77
2022/11/12 00:53:08;;;;;;;5.07;2.42;;;6.90;99.90;;;5.67;100.00;102355.94;5048589;28;20470;-77
2022/11/12 00:55:52;;;;;;;6.57;2.42;;;7.00;99.90;;;5.84;100.00;102365.22;5046109;28;20052;-77
2022/11/12 00:58:37;;;;;;;5.22;2.58;;;7.10;99.90;;;5.98;100.00;102374.75;5048550;28;20143;-77
2022/11/12 01:01:22;;;;;;;7.60;2.10;;;7.20;99.90;;;6.12;100.00;102368.06;5044667;28;20040;-77
2022/11/12 01:04:07;;;;;;;6.72;2.40;;;7.40;99.90;;;6.19;100.00;102365.63;5048302;28;20047;-77
2022/11/12 01:06:52;;;;;;;5.25;2.47;;;7.50;99.90;;;6.21;100.00;102373.63;5044456;28;20039;-77
2022/11/12 01:09:36;;;;;;;6.07;2.30;;;7.50;99.90;;;6.25;100.00;102378.59;5047008;28;20044;-78
2022/11/12 01:12:20;;;;;;;6.72;2.60;;;7.60;99.90;;;6.29;100.00;102380.03;5043459;28;20408;-77
2022/11/12 01:15:06;;;;;;;4.20;2.47;;;7.60;99.90;;;6.21;100.00;102376.31;5048052;28;20043;-77
2022/11/12 01:17:50;;;;;;;4.78;2.35;;;7.60;99.90;;;6.14;100.00;102376.03;5047941;28;20099;-77
2022/11/12 01:20:38;;;;;;;4.70;2.47;;;7.50;99.90;;;6.03;100.00;102371.63;5047949;28;20056;-77
2022/11/12 01:23:22;;;;;;;5.53;2.47;;;7.40;99.90;;;6.00;100.00;102352.94;5048603;28;20420;-77
2022/11/12 01:26:13;;;;;;;3.67;2.08;;;7.40;99.90;;;6.17;100.00;102375.75;5047326;28;20460;-77
2022/11/12 01:28:58;;;;;;;4.78;2.40;;;7.50;99.90;;;6.11;100.00;102363.66;5046933;28;20039;-77
2022/11/12 01:31:42;;;;;;;3.78;2.47;;;7.50;99.90;;;6.14;100.00;102376.91;5047241;28;20048;-77
2022/11/12 01:34:27;;;;;;;6.40;2.47;;;7.50;99.90;;;6.17;100.00;102365.78;5047164;28;20132;-77
2022/11/12 01:37:11;;;;;;;5.18;2.35;;;7.50;99.90;;;6.18;100.00;102370.19;5042229;28;20052;-76
2022/11/12 01:39:56;;;;;;;5.78;2.53;;;7.50;99.90;;;6.02;100.00;102369.94;5046892;28;20595;-77
2022/11/12 01:42:40;;;;;;;5.32;2.50;;;7.50;99.90;;;5.98;100.00;102363.94;5046498;28;20139;-76
2022/11/12 01:45:25;;;;;;;5.28;2.83;;;7.40;99.90;;;5.89;100.00;102373.78;5047241;28;20043;-76
2022/11/12 01:48:28;;;;;;;4.57;2.55;;;7.30;99.90;;;5.84;100.00;102378.75;5047665;28;20043;-78
2022/11/12 01:51:14;;;;;;;4.60;2.40;;;7.30;99.90;;;5.81;100.00;102379.03;5046796;28;20079;-77
2022/11/12 01:54:05;;;;;;;5.15;2.90;;;7.20;99.90;;;5.83;100.00;102378.91;5047902;28;20056;-78
2022/11/12 01:56:50;;;;;;;7.55;2.95;;;7.20;99.90;;;5.82;100.00;102375.31;5043250;28;20106;-77
2022/11/12 01:59:41;;;;;;;8.25;3.42;;;7.20;99.90;;;5.92;100.00;102369.06;5046741;28;20052;-77
2022/11/12 02:02:27;;;;;;;6.93;3.83;;;7.30;99.90;;;5.76;100.00;102373.19;5045670;28;20373;-77
2022/11/12 02:05:14;;;;;;;7.43;3.47;;;7.20;99.90;;;5.72;100.00;102372.63;5044757;28;20071;-77
2022/11/12 02:08:01;;;;;;;7.50;3.70;;;7.10;99.90;;;5.70;100.00;102373.75;5046704;28;20071;-77
2022/11/12 02:10:45;;;;;;;6.95;3.45;;;7.10;99.90;;;5.74;100.00;102375.19;5044824;28;20075;-77
2022/11/12 02:16:38;;;;;;;5.80;3.58;;;7.10;99.90;;;5.85;100.00;102369.63;5046524;28;20446;-77
2022/11/12 02:19:23;;;;;;;8.35;3.80;;;7.20;99.90;;;6.01;100.00;102360.09;5046314;28;20051;-77
2022/11/12 02:22:07;;;;;;;7.30;3.97;;;7.30;99.90;;;6.28;100.00;102372.03;5047354;28;20094;-76
2022/11/12 02:24:52;;;;;;;8.90;3.90;;;7.60;99.90;;;6.36;100.00;102371.31;5042778;28;20094;-77
2022/11/12 02:27:37;;;;;;;6.25;3.58;;;7.60;99.90;;;6.26;100.00;102369.47;5046899;28;20035;-79
2022/11/12 02:30:35;;;;;;;7.93;3.65;;;7.70;99.90;;;6.26;100.00;102374.03;5045581;28;20060;-78
2022/11/12 02:33:19;;;;;;;6.07;3.85;;;7.60;99.90;;;6.14;100.00;102370.63;5046004;28;20090;-79
2022/11/12 02:36:04;;;;;;;7.35;3.47;;;7.60;99.90;;;6.13;100.00;102369.78;5044499;28;20040;-78
2022/11/12 02:38:49;;;;;;;7.25;3.85;;;7.50;99.90;;;6.20;100.00;102378.16;5042896;28;20086;-78
2022/11/12 02:41:33;;;;;;;7.82;3.80;;;7.50;99.90;;;6.28;100.00;102372.91;5046963;28;20187;-76
2022/11/12 02:44:17;;;;;;;7.43;3.80;;;7.60;99.90;;;6.31;100.00;102367.19;5041899;28;20047;-78
2022/11/12 02:47:02;;;;;;;8.25;4.20;;;7.60;99.90;;;6.39;100.00;102363.75;5044560;28;20067;-76
2022/11/12 02:49:47;;;;;;;6.75;3.60;;;7.70;99.90;;;6.43;100.00;102370.56;5043875;28;20070;-76
2022/11/12 02:52:31;;;;;;;6.88;3.65;;;7.80;99.90;;;6.44;100.00;102372.28;5030336;28;20051;-77
2022/11/12 02:55:16;;;;;;;8.18;4.13;;;7.80;99.90;;;6.43;100.00;102370.56;5046264;28;20190;-77
2022/11/12 02:58:00;;;;;;;7.70;3.78;;;7.80;99.90;;;6.43;100.00;102370.56;5045457;28;20059;-76
2022/11/12 03:00:45;;;;;;;8.40;3.85;;;7.80;99.90;;;6.44;100.00;102366.00;5045688;28;20101;-77
2022/11/12 03:03:30;;;;;;;7.20;3.70;;;7.80;99.90;;;6.51;100.00;102366.25;5045147;28;20055;-76
2022/11/12 03:06:14;;;;;;;7.20;3.78;;;7.80;99.90;;;6.47;100.00;102362.97;5045537;28;20639;-77
2022/11/12 03:08:59;;;;;;;6.78;3.35;;;7.80;99.90;;;6.50;100.00;102365.41;5045829;28;20929;-78
2022/11/12 03:11:43;;;;;;;6.43;3.75;;;7.80;99.90;;;6.32;100.00;102351.75;5045500;28;20716;-78
2022/11/12 03:14:28;;;;;;;8.30;3.85;;;7.80;99.90;;;6.23;100.00;102358.91;5041264;28;20268;-77
2022/11/12 03:17:12;;;;;;;7.22;3.60;;;7.60;99.90;;;6.19;100.00;102362.91;5045951;28;20051;-78
2022/11/12 03:19:57;;;;;;;7.18;3.67;;;7.60;99.90;;;6.08;100.00;102368.50;5042782;28;20099;-78
2022/11/12 03:22:42;;;;;;;7.68;3.90;;;7.50;99.90;;;5.95;100.00;102357.94;5045433;28;20447;-78
2022/11/12 03:25:27;;;;;;;7.47;3.80;;;7.40;99.90;;;5.87;100.00;102359.50;5045128;28;20417;-78
2022/11/12 03:28:15;;;;;;;7.93;3.67;;;7.30;99.90;;;5.81;100.00;102362.78;5045023;28;20430;-77
2022/11/12 03:31:00;;;;;;;6.97;3.60;;;7.20;99.90;;;5.78;100.00;102363.06;5041287;28;20351;-77
2022/11/12 03:33:44;;;;;;;5.43;3.28;;;7.20;99.90;;;5.78;100.00;102357.66;5045360;28;20132;-78
2022/11/12 03:36:28;;;;;;;6.18;3.33;;;7.20;99.90;;;5.90;100.00;102359.22;5042455;28;20048;-78
2022/11/12 03:39:13;;;;;;;5.95;2.92;;;7.20;99.90;;;5.90;100.00;102364.63;5045196;28;20119;-78
2022/11/12 03:41:57;;;;;;;8.98;3.67;;;7.30;99.90;;;5.91;100.00;102362.78;5044554;28;20056;-78
2022/11/12 03:44:42;;;;;;;6.90;2.92;;;7.20;99.90;;;5.89;100.00;102368.34;5044337;28;20219;-78
2022/11/12 03:47:26;;;;;;;5.82;3.28;;;7.30;99.90;;;5.78;100.00;102371.19;5045887;28;20086;-78
2022/11/12 03:50:14;;;;;;;6.85;3.22;;;7.20;99.90;;;5.71;100.00;102372.75;5045238;28;20040;-78
2022/11/12 03:52:59;;;;;;;6.05;3.88;;;7.10;99.90;;;5.77;100.00;102372.19;5044792;28;20079;-78
2022/11/12 03:55:43;;;;;;;6.40;3.60;;;7.10;99.90;;;5.69;100.00;102366.63;5045314;28;20948;-78
2022/11/12 03:58:28;;;;;;;5.97;3.35;;;7.10;99.90;;;5.61;100.00;102359.22;5041233;28;20163;-78
2022/11/12 04:01:12;;;;;;;7.03;3.33;;;7.00;99.90;;;5.58;100.00;102354.97;5045645;28;20143;-78
2022/11/12 04:03:57;;;;;;;6.90;3.00;;;7.00;99.90;;;5.62;100.00;102355.50;5041337;28;20067;-77
2022/11/12 04:09:44;;;;;;;6.78;3.45;;;7.00;99.90;;;5.59;100.00;102353.09;5044775;28;20417;-78
2022/11/12 04:15:32;;;;;;;5.65;3.22;;;6.90;99.90;;;5.43;100.00;102332.84;5048536;28;20420;-78
2022/11/12 04:27:41;;;;;;;6.55;3.80;;;7.00;99.90;;;5.54;100.00;102336.44;5048482;28;20450;-78
2022/11/12 04:30:26;;;;;;;6.72;3.55;;;7.00;99.90;;;5.70;100.00;102349.38;5046254;28;20048;-78
2022/11/12 04:33:10;;;;;;;5.03;3.42;;;7.10;99.90;;;5.85;100.00;102339.84;5048854;28;20133;-77
2022/11/12 04:35:55;;;;;;;6.43;3.40;;;7.20;99.90;;;5.81;100.00;102332.97;5046515;28;20083;-78
2022/11/12 04:38:39;;;;;;;6.57;3.35;;;7.20;99.90;;;5.92;100.00;102341.97;5048938;28;20040;-78
2022/11/12 04:47:50;;;;;;;9.63;3.67;;;7.20;99.90;;;5.72;100.00;102350.09;5048984;28;20039;-78
2022/11/12 04:50:35;;;;;;;5.85;3.10;;;7.20;99.90;;;5.78;100.00;102354.09;5048781;28;20048;-78
2022/11/12 04:53:20;;;;;;;6.78;3.05;;;7.10;99.90;;;5.72;100.00;102356.38;5045280;28;20072;-78
2022/11/12 04:56:04;;;;;;;6.20;3.10;;;7.10;99.90;;;5.69;100.00;102345.81;5049295;28;20504;-78
2022/11/12 04:58:49;;;;;;;7.38;3.20;;;7.10;99.90;;;5.77;100.00;102347.81;5046103;28;20170;-78
2022/11/12 05:01:33;;;;;;;6.53;3.28;;;7.10;99.90;;;5.83;100.00;102349.94;5042244;28;20055;-78
2022/11/12 05:04:18;;;;;;;7.32;3.08;;;7.10;99.90;;;5.95;100.00;102350.66;5047863;28;20416;-78
2022/11/12 05:07:03;;;;;;;5.80;3.17;;;7.30;99.90;;;5.96;100.00;102356.94;5047361;28;20048;-78
2022/11/12 05:09:47;;;;;;;4.38;2.85;;;7.30;99.90;;;5.91;100.00;102351.94;5048310;28;20503;-78
2022/11/12 05:12:31;;;;;;;5.97;3.20;;;7.30;99.90;;;5.95;100.00;102353.34;5047295;28;20039;-78
2022/11/12 05:15:17;;;;;;;5.28;3.17;;;7.30;99.90;;;5.94;100.00;102353.50;5045334;28;20047;-78
2022/11/12 05:18:01;;;;;;;6.47;3.00;;;7.30;99.90;;;5.89;100.00;102349.38;5048124;28;20268;-78
2022/11/12 05:20:46;;;;;;;5.22;2.95;;;7.30;99.90;;;5.84;100.00;102338.13;5046891;28;20075;-77
2022/11/12 05:23:30;;;;;;;7.70;3.55;;;7.30;99.90;;;5.84;100.00;102354.38;5045477;28;20048;-78
2022/11/12 05:26:15;;;;;;;6.90;3.25;;;7.20;99.90;;;5.68;100.00;102343.25;5047850;28;20998;-78
2022/11/12 05:29:00;;;;;;;6.60;3.40;;;7.10;99.90;;;5.63;100.00;102356.38;5045969;28;20102;-78
2022/11/12 05:31:45;;;;;;;6.40;3.55;;;7.00;99.90;;;5.50;100.00;102360.22;5048022;28;20114;-77
2022/11/12 05:34:30;;;;;;;8.50;3.95;;;6.90;99.90;;;5.43;100.00;102356.34;5047817;28;20055;-77
2022/11/12 05:37:16;;;;;;;7.20;3.35;;;6.80;99.90;;;5.32;100.00;102351.94;5047286;28;20540;-77
2022/11/12 05:40:00;;;;;;;7.80;4.07;;;6.70;99.90;;;5.21;100.00;102363.72;5045121;28;20133;-77
2022/11/12 05:42:44;;;;;;;7.15;3.67;;;6.60;99.90;;;4.57;100.00;102349.56;5047451;28;20060;-77
2022/11/12 05:45:29;;;;;;;9.02;4.03;;;6.20;99.90;;;4.39;100.00;102357.47;5042542;28;20525;-77
2022/11/12 05:48:14;;;;;;;8.18;4.18;;;5.90;99.90;;;4.56;100.00;102353.28;5047118;28;20044;-77
2022/11/12 05:51:01;;;;;;;7.85;4.28;;;5.90;99.90;;;4.82;100.00;102345.53;5045087;28;20087;-77
2022/11/12 05:53:45;;;;;;;6.95;4.15;;;6.10;99.90;;;4.93;100.00;102341.88;5052294;28;20101;-77
2022/11/12 05:56:31;;;;;;;7.90;4.35;;;6.30;99.90;;;4.93;100.00;102344.56;5055874;28;20632;-78
2022/11/12 05:59:15;;;;;;;8.43;4.25;;;6.30;99.90;;;4.86;100.00;102341.56;5055002;28;20186;-78
2022/11/12 06:01:59;;;;;;;9.68;4.55;;;6.30;99.90;;;4.86;100.00;102343.41;5051813;28;20055;-77
2022/11/12 06:04:44;;;;;;;7.10;4.20;;;6.30;99.90;;;4.87;100.00;102334.31;5051427;28;20500;-77
2022/11/12 06:07:29;;;;;;;7.45;4.45;;;6.30;99.90;;;4.78;100.00;102336.00;5051768;28;20044;-78
2022/11/12 06:10:13;;;;;;;9.35;4.30;;;6.30;99.90;;;4.79;100.00;102342.28;5055519;28;20291;-77
2022/11/12 06:12:58;;;;;;;10.27;4.82;;;6.20;99.90;;;4.74;100.00;102340.81;5051992;28;20468;-78
2022/11/12 06:15:43;;;;;;;7.35;4.18;;;6.20;99.90;;;4.79;100.00;102347.69;5053847;28;20062;-78
2022/11/12 06:18:27;;;;;;;7.40;4.53;;;6.20;99.90;;;4.73;100.00;102335.56;5051509;28;20515;-77
2022/11/12 06:21:18;;;;;;;11.10;5.13;;;6.10;99.90;;;4.74;100.00;102338.09;5055511;28;20048;-77
2022/11/12 06:24:03;;;;;;;9.63;4.75;;;6.20;99.90;;;4.67;100.00;102355.88;5050783;28;20524;-77
2022/11/12 06:26:48;;;;;;;7.65;4.25;;;6.10;99.90;;;4.63;100.00;102357.13;5042750;28;20094;-77
2022/11/12 06:29:33;;;;;;;8.27;4.63;;;6.10;99.90;;;4.59;100.00;102348.44;5046065;28;20072;-77
2022/11/12 06:32:18;;;;;;;10.65;4.68;;;6.00;99.90;;;4.22;100.00;102342.69;5032869;28;20409;-77
2022/11/12 06:35:03;;;;;;;7.38;4.25;;;5.80;99.90;;;4.10;100.00;102353.56;5046297;28;20051;-76
2022/11/12 06:37:48;;;;;;;8.80;4.90;;;5.60;99.90;;;4.03;100.00;102347.84;5043185;28;20125;-76
2022/11/12 06:40:33;;;;;;;13.63;5.38;;;5.60;99.90;;;3.96;100.00;102352.06;5044836;28;20051;-77
2022/11/12 06:43:17;;;;;;;7.13;4.70;;;5.50;99.90;;;3.79;100.00;102358.91;5046864;28;20094;-76
2022/11/12 06:46:11;;;;;;;9.77;5.53;;;5.30;99.90;;;3.68;100.00;102358.94;5045093;28;20051;-76
2022/11/12 06:48:55;;;;;;;10.02;5.05;;;5.20;99.90;;;3.38;100.00;102371.31;5045968;28;20114;-75
2022/11/12 06:51:40;;;;;;;10.93;5.03;;;5.00;99.90;;;3.23;100.00;102374.31;5045426;28;20055;-80
2022/11/12 06:54:25;;;;;;;10.23;5.78;;;4.80;99.90;;;3.22;100.00;102377.13;5046576;28;20131;-81
2022/11/12 06:57:09;;;;;;;10.75;5.70;;;4.80;99.90;;;3.25;100.00;102368.78;5046217;28;20060;-78
2022/11/12 06:59:54;;;;;;;12.85;6.45;;;4.80;99.90;;;3.30;100.00;102364.72;5045837;28;20117;-77
2022/11/12 07:02:38;;;;;;;12.48;6.65;;;4.80;99.90;;;3.39;100.00;102370.31;5040122;28;20407;-77
2022/11/12 07:05:22;;;;;;;14.43;6.93;;;4.90;99.90;;;3.48;100.00;102368.72;5045595;28;20554;-77
2022/11/12 07:08:07;;;;;;;12.73;6.32;;;5.00;99.90;;;3.53;100.00;102371.88;5045748;28;20397;-77
2022/11/12 07:10:56;;;;;;;11.88;6.15;;;5.00;99.90;;;3.60;100.00;102373.94;5045117;28;20047;-78
2022/11/12 07:13:43;;;;;;;10.48;5.45;;;5.10;99.90;;;3.74;100.00;102382.75;5045186;28;20455;-78
2022/11/12 07:16:27;;;;;;;10.50;5.53;;;5.20;99.90;;;3.75;100.00;102365.56;5045134;28;20048;-78
2022/11/12 07:19:12;;;;;;;8.77;5.60;;;5.30;99.90;;;3.87;100.00;102374.47;5044743;28;20044;-78
2022/11/12 07:21:56;;;;;;;11.52;5.80;;;5.40;99.90;;;4.00;100.00;102393.19;5045830;28;20052;-78
2022/11/12 07:24:41;;;;;;;8.63;5.75;;;5.50;99.90;;;3.98;100.00;102387.06;5038228;28;20132;-78
2022/11/12 07:27:29;;;;;;;10.25;5.70;;;5.50;99.90;;;3.96;100.00;102392.56;5043763;28;20052;-80
2022/11/12 07:30:14;;;;;;;11.52;6.47;;;5.50;99.90;;;3.91;100.00;102388.53;5040446;28;20196;-86
2022/11/12 07:32:59;;;;;;;16.23;6.65;;;5.50;99.90;;;3.96;100.00;102391.69;5041170;28;20048;-82
2022/11/12 07:35:43;;;;;;;13.05;6.30;;;5.50;99.90;;;3.89;100.00;102381.44;5045158;28;20102;-80
2022/11/12 07:38:30;;;;;;;9.07;6.00;;;5.50;99.90;;;4.03;100.00;102401.03;5047028;28;20709;-81
2022/11/12 07:41:20;;;;;;;11.52;6.30;;;5.50;99.90;;;4.08;100.00;102401.47;5044305;28;20056;-85
2022/11/12 07:44:04;;;;;;;11.98;5.63;;;5.60;99.90;;;4.12;100.00;102392.13;5045434;28;20432;-81
2022/11/12 07:46:49;;;;;;;12.90;6.00;;;5.70;99.90;;;4.20;100.00;102407.69;5041524;28;20119;-82
2022/11/12 07:49:33;;;;;;;8.05;5.47;;;5.70;99.90;;;4.33;100.00;102402.06;5049600;28;20177;-84
2022/11/12 07:52:18;;;;;;;9.20;5.20;;;5.80;99.90;;;4.45;100.00;102397.47;5046346;28;20053;-84
2022/11/12 07:55:03;;;;;;;9.70;5.28;;;6.00;99.90;;;4.53;100.00;102397.63;5049507;28;20051;-81
2022/11/12 07:57:47;;;;;;;9.10;4.80;;;6.00;99.90;;;4.75;100.00;102402.00;5049960;28;20408;-84
2022/11/12 08:00:31;;;;;;;7.35;5.00;;;6.20;99.90;;;5.03;100.00;102402.25;5050479;28;20090;-84
2022/11/12 08:03:17;;;;;;;8.55;4.75;;;6.40;99.90;;;5.32;100.00;102396.09;5050395;28;20118;-85
2022/11/12 08:06:02;;;;;;;8.82;4.65;;;6.70;99.90;;;5.56;100.00;102405.66;5050340;28;20048;-84
2022/11/12 08:08:46;;;;;;;9.65;5.15;;;7.00;99.90;;;5.86;100.00;102406.56;5049401;28;20059;-82
2022/11/12 08:11:32;;;;;;;8.73;4.82;;;7.20;99.90;;;6.02;100.00;102386.19;5045709;28;20095;-83
2022/11/12 08:14:16;;;;;;;10.55;4.93;;;7.50;99.90;;;6.33;100.00;102413.97;5049747;28;20047;-84
2022/11/12 08:17:01;;;;;;;10.32;4.80;;;7.70;99.90;;;6.66;100.00;102410.91;5050800;28;20048;-83
2022/11/12 08:19:45;;;;;;;8.48;4.75;;;8.10;99.90;;;7.09;100.00;102433.00;5048757;28;20044;-83
2022/11/12 08:22:30;;;;;;;7.45;4.30;;;8.50;99.90;;;7.36;100.00;102422.28;5047611;28;20140;-83
2022/11/12 08:25:15;;;;;;;7.43;3.70;;;8.80;99.90;;;7.63;100.00;102421.41;5049800;28;20205;-80
2022/11/12 08:27:59;;;;;;;7.57;3.90;;;9.10;99.90;;;7.95;100.00;102419.16;5049024;28;20213;-90
2022/11/12 08:30:44;;;;;;;6.93;4.05;;;9.50;99.90;;;8.28;97.71;102424.88;5049514;28;20275;-86
2022/11/12 08:33:29;;;;;;;8.85;4.15;;;9.70;99.90;;;8.43;95.44;102426.00;5049583;28;20071;-83
2022/11/12 08:36:16;;;;;;;9.63;3.97;;;9.90;99.90;;;8.53;94.00;102422.38;5050174;28;20095;-79
2022/11/12 08:39:01;;;;;;;9.15;3.78;;;10.00;99.90;;;8.56;91.81;102413.88;5046313;28;20151;-79
2022/11/12 08:41:45;;;;;;;8.00;3.92;;;10.10;99.90;;;8.68;91.43;102423.47;5042443;28;20099;-81
2022/11/12 08:44:30;;;;;;;6.93;3.53;;;10.20;99.90;;;8.83;91.95;102420.16;5045924;28;20133;-81
2022/11/12 08:47:14;;;;;;;6.40;3.40;;;10.30;99.90;;;8.81;91.08;102420.31;5045876;28;20044;-82
2022/11/12 08:49:59;;;;;;;6.22;3.30;;;10.40;99.90;;;9.02;91.58;102416.34;5043005;28;20191;-81
2022/11/12 08:52:44;;;;;;;6.28;3.55;;;10.50;99.90;;;9.20;89.32;102410.78;5046587;28;20039;-82
2022/11/12 08:55:30;;;;;;;5.00;3.30;;;10.60;99.90;;;9.48;88.52;102424.16;5046990;28;20551;-82
2022/11/12 08:58:14;;;;;;;6.60;3.38;;;10.80;99.90;;;9.66;86.08;102417.75;5045731;28;20048;-82
2022/11/12 09:01:05;;;;;;;5.60;3.42;;;11.10;99.90;;;9.97;85.20;102425.28;5047185;28;20128;-82
2022/11/12 09:03:49;;;;;;;5.75;3.17;;;11.30;99.90;;;10.28;82.80;102422.72;5047321;28;20043;-82
2022/11/12 09:06:34;;;;;;;9.05;3.33;;;11.60;99.90;;;10.47;81.17;102423.41;5049298;28;20107;-82
2022/11/12 09:09:18;;;;;;;6.75;3.30;;;11.80;99.90;;;10.62;84.65;102424.41;5046497;28;20060;-84
2022/11/12 09:12:03;;;;;;;6.55;3.45;;;12.00;99.90;;;10.90;81.14;102429.47;5048718;28;20519;-83
2022/11/12 09:14:48;;;;;;;7.13;3.30;;;12.20;99.90;;;11.27;78.93;102429.84;5043346;28;20043;-84
2022/11/12 09:17:34;;;;;;;4.95;2.97;;;12.50;99.90;;;11.65;77.13;102420.91;5043838;28;20512;-82
2022/11/12 09:20:18;;;;;;;5.57;3.15;;;13.00;99.90;;;12.07;75.22;102429.72;5046342;28;20620;-82
2022/11/12 09:23:07;;;;;;;6.40;3.72;;;13.40;99.90;;;12.42;72.93;102430.06;5047565;28;20110;-83
2022/11/12 09:25:55;;;;;;;5.72;3.42;;;13.70;99.90;;;12.68;70.33;102437.00;5049827;28;20095;-84
2022/11/12 09:28:39;;;;;;;7.00;3.42;;;14.10;99.90;;;12.99;69.83;102438.72;5047128;28;20047;-80
2022/11/12 09:31:24;;;;;;;6.10;3.03;;;14.70;99.90;;;13.42;68.63;102435.28;5045154;28;20052;-83
2022/11/12 09:34:09;;;;;;;8.07;3.20;;;15.70;99.90;;;14.12;64.27;102443.03;5048289;28;20123;-82
2022/11/12 09:36:54;;;;;;;5.25;3.45;;;16.80;99.60;;;14.79;60.13;102445.47;5047186;28;20048;-84
2022/11/12 09:39:38;;;;;;;6.72;3.83;;;17.70;96.40;;;15.16;58.86;102442.50;5047506;28;20102;-82
2022/11/12 09:42:24;;;;;;;5.55;3.10;;;17.80;95.80;;;15.68;57.58;102438.28;5046390;28;20052;-82
2022/11/12 09:45:30;;;;;;;6.05;3.30;;;17.80;95.60;;;15.96;56.35;102433.69;5048455;28;20412;-83
2022/11/12 09:48:21;;;;;;;6.72;3.50;;;17.80;95.50;;;16.46;53.88;102449.81;5046347;28;20128;-84
2022/11/12 09:51:26;;;;;;;5.43;3.08;;;17.90;94.80;;;17.60;51.56;102448.66;5043687;28;20523;-83
2022/11/12 09:54:26;;;;;;;6.43;3.40;;;18.40;94.80;;;19.54;44.03;102450.75;5047697;28;20052;-84
2022/11/12 09:57:12;;;;;;;6.65;3.05;;;19.80;90.50;;;19.23;43.14;102449.00;5046278;28;20129;-84
2022/11/12 09:59:57;;;;;;;5.13;2.75;;;20.40;85.20;;;17.96;45.32;102444.41;5043327;28;20052;-85
2022/11/12 10:03:13;;;;;;;5.60;2.80;;;19.90;84.60;;;16.23;49.74;102450.22;5046338;28;20106;-83
2022/11/12 10:06:18;;;;;;;5.15;3.13;;;18.70;87.00;;;15.01;54.91;102448.97;5044844;28;20087;-85
2022/11/12 10:09:19;;;;;;;7.95;3.80;;;17.30;91.30;;;14.58;56.90;102449.06;5046025;28;20048;-83
2022/11/12 10:12:31;;;;;;;6.07;3.30;;;16.40;93.40;;;14.36;57.43;102444.50;5045553;28;20090;-83
2022/11/12 10:19:34;;;;;;;6.55;3.70;;;15.80;95.80;;;14.41;58.97;102441.16;5047310;28;20131;-82
2022/11/12 10:22:36;;;;;;;7.05;3.53;;;15.80;96.60;;;14.88;56.83;102444.25;5046874;28;20127;-85
2022/11/12 10:25:20;;;;;;;6.03;3.20;;;16.20;95.70;;;15.08;56.95;102440.78;5046555;28;20043;-84
2022/11/12 10:28:25;;;;;;;7.57;3.53;;;16.50;95.60;;;14.75;56.21;102428.53;5045282;28;20541;-84
2022/11/12 10:31:17;;;;;;;6.13;3.22;;;16.60;94.90;;;15.00;58.35;102433.53;5044026;28;20060;-84
2022/11/12 10:34:23;;;;;;;6.80;3.72;;;16.50;96.10;;;14.84;59.60;102434.72;5040156;28;20102;-82
2022/11/12 10:37:19;;;;;;;7.25;3.38;;;16.60;96.30;;;14.98;59.29;102441.16;5047072;28;20055;-83
2022/11/12 10:40:27;;;;;;;7.70;4.00;;;16.70;96.60;;;15.00;63.53;102430.78;5042483;28;20094;-82
2022/11/12 10:43:14;;;;;;;8.77;4.10;;;16.60;98.80;;;15.13;62.55;102435.50;5044714;28;20354;-83
2022/11/12 10:46:25;;;;;;;5.63;3.45;;;16.70;98.40;;;15.55;59.43;102434.63;5045718;28;20527;-84
2022/11/12 10:49:15;;;;;;;6.03;3.22;;;16.80;97.60;;;15.87;60.77;102435.75;5046143;28;20520;-82
2022/11/12 10:51:59;;;;;;;5.50;3.50;;;17.10;98.50;;;15.59;62.34;102422.16;5044923;28;20559;-83
2022/11/12 10:54:44;;;;;;;7.30;3.40;;;17.10;98.50;;;15.61;63.80;102417.28;5039441;28;20595;-82
2022/11/12 10:57:29;;;;;;;6.40;3.45;;;17.10;99.20;;;15.55;60.53;102421.72;5058805;28;20047;-83
2022/11/12 11:00:16;;;;;;;5.95;3.15;;;17.20;97.60;;;15.44;56.15;102423.16;5046540;28;20224;-82
2022/11/12 11:03:15;;;;;;;4.65;3.00;;;17.10;95.50;;;15.15;57.61;102421.56;5045962;28;20048;-83
2022/11/12 11:06:16;;;;;;;6.05;3.20;;;16.90;96.40;;;14.96;59.24;102424.00;5045571;28;20056;-84
2022/11/12 11:09:18;;;;;;;6.28;2.92;;;16.60;96.90;;;14.45;61.78;102412.25;5034746;28;20044;-84
2022/11/12 11:12:20;;;;;;;5.22;2.88;;;16.20;97.80;;;14.36;60.92;102414.28;5044420;28;20051;-83
2022/11/12 11:15:22;;;;;;;4.60;2.92;;;16.00;97.80;;;14.80;61.27;102426.03;5046056;28;20083;-82
2022/11/12 11:18:12;;;;;;;6.03;3.15;;;16.10;98.50;;;15.17;62.45;102422.22;5043502;28;20189;-83
2022/11/12 11:21:47;;;;;;;6.22;3.00;;;16.30;99.50;;;14.92;64.29;102401.56;5045018;28;20554;-82
2022/11/12 11:24:50;;;;;;;5.68;3.45;;;16.50;99.70;;;15.04;66.59;102388.09;5029768;28;20059;-83
2022/11/12 11:27:53;;;;;;;7.30;3.40;;;16.60;99.90;;;15.53;58.80;102396.31;5043251;28;20123;-82
2022/11/12 11:31:01;;;;;;;6.35;3.92;;;16.90;97.70;;;15.42;57.92;102385.94;5044569;28;20484;-81
2022/11/12 11:34:26;;;;;;;7.35;3.72;;;17.00;96.50;;;16.10;54.63;102388.59;5044003;28;20044;-83
2022/11/12 11:37:28;;;;;;;6.40;3.30;;;17.50;96.10;;;16.13;58.18;102384.56;5038796;28;20056;-83
2022/11/12 11:40:27;;;;;;;6.82;3.88;;;17.60;97.00;;;15.68;57.26;102377.75;5041877;28;20114;-83
2022/11/12 11:43:45;;;;;;;6.53;3.65;;;17.50;95.90;;;16.23;55.20;102384.13;5005068;28;20072;-80
2022/11/12 11:47:06;;;;;;;6.13;3.70;;;17.70;95.30;;;16.48;55.99;102381.59;5002985;28;20403;-82
2022/11/12 11:50:10;;;;;;;6.88;3.60;;;17.90;95.50;;;16.96;56.83;102387.81;5001355;28;20040;-81
2022/11/12 11:53:24;;;;;;;5.63;3.30;;;18.20;96.60;;;16.96;58.27;102396.06;5012757;28;20049;-82
2022/11/12 11:56:24;;;;;;;6.97;3.60;;;18.30;96.90;;;16.59;57.52;102384.75;5011897;28;20092;-81
2022/11/12 11:59:38;;;;;;;5.53;2.83;;;18.30;96.00;;;15.85;59.19;102385.56;5001544;28;20044;-83
2022/11/12 12:02:55;;;;;;;6.03;3.33;;;17.90;96.00;;;15.21;60.24;102376.75;4999199;28;20048;-84
2022/11/12 12:06:15;;;;;;;6.82;3.38;;;17.30;96.20;;;15.24;63.75;102363.44;5000507;28;20484;-83
2022/11/12 12:09:15;;;;;;;7.05;4.00;;;17.00;98.80;;;15.57;62.85;102366.50;5004590;28;20044;-83
2022/11/12 12:12:37;;;;;;;7.57;3.97;;;17.10;98.50;;;15.71;64.72;102348.94;5004031;28;20686;-84
2022/11/12 12:15:51;;;;;;;7.25;3.72;;;17.10;99.90;;;16.10;63.99;102372.09;5003567;28;20056;-83